createdAt,value
2023-05-20T00:00:02.246Z,101116.97
2023-05-20T00:02:34.245Z,101111.53
2023-05-20T00:05:02.178Z,101111.81
2023-05-20T00:07:30.332Z,101111.38
2023-05-20T00:09:57.957Z,101117.13
2023-05-20T00:12:25.558Z,101104.13
2023-05-20T00:14:53.957Z,101103.81
2023-05-20T00:17:23.386Z,101103.72
2023-05-20T00:19:51.527Z,101099.63
2023-05-20T00:22:19.012Z,101101.91
2023-05-20T00:24:47.151Z,101101.22
2023-05-20T00:27:15.275Z,101086.53
2023-05-20T00:29:43.376Z,101097.28
2023-05-20T00:32:11.446Z,101095.03
2023-05-20T00:34:39.214Z,101090.88
2023-05-20T00:37:07.296Z,101089.06
2023-05-20T00:39:34.882Z,101084.94
2023-05-20T00:42:03.556Z,101080.78
2023-05-20T00:44:31.187Z,101073.94
2023-05-20T00:46:58.810Z,101075.47
2023-05-20T00:49:26.545Z,101075.56
2023-05-20T00:51:54.818Z,101077.56
2023-05-20T00:54:22.645Z,101074.78
2023-05-20T00:56:51.100Z,101073.63
2023-05-20T00:59:19.000Z,101066.09
2023-05-20T01:01:47.236Z,101068.31
2023-05-20T01:04:15.760Z,101074.78
2023-05-20T01:06:46.293Z,101076.13
2023-05-20T01:09:14.020Z,101073.50
2023-05-20T01:12:16.881Z,101065.69
2023-05-20T01:14:50.080Z,101065.84
2023-05-20T01:17:20.988Z,101054.41
2023-05-20T01:19:49.592Z,101056.63
2023-05-20T01:22:17.246Z,101049.09
2023-05-20T01:24:53.531Z,101047.22
2023-05-20T01:27:22.710Z,101045.41
2023-05-20T01:29:51.946Z,101043.16
2023-05-20T01:32:25.333Z,101042.25
2023-05-20T01:34:53.917Z,101041.28
2023-05-20T01:37:23.294Z,101042.38
2023-05-20T01:39:52.446Z,101049.63
2023-05-20T01:42:21.132Z,101037.34
2023-05-20T01:44:50.139Z,101036.09
2023-05-20T01:47:18.257Z,101035.13
2023-05-20T01:49:46.446Z,101023.94
2023-05-20T01:52:14.182Z,101024.34
2023-05-20T01:54:42.199Z,101021.25
2023-05-20T01:57:10.975Z,101015.81
2023-05-20T01:59:39.804Z,101008.00
2023-05-20T02:02:07.982Z,101004.25
2023-05-20T02:04:36.310Z,101008.00
2023-05-20T02:07:04.535Z,101008.44
2023-05-20T02:09:32.073Z,101002.00
2023-05-20T02:11:59.719Z,101003.13
2023-05-20T02:14:27.621Z,101000.22
2023-05-20T02:16:56.427Z,100999.22
2023-05-20T02:19:24.265Z,100992.69
2023-05-20T02:21:51.824Z,100998.94
2023-05-20T02:24:21.289Z,100992.25
2023-05-20T02:26:51.237Z,100996.84
2023-05-20T02:29:22.129Z,100999.09
2023-05-20T02:31:50.779Z,100996.56
2023-05-20T02:34:19.179Z,100988.38
2023-05-20T02:36:46.818Z,100986.94
2023-05-20T02:39:14.509Z,100991.69
2023-05-20T02:41:42.467Z,100994.34
2023-05-20T02:44:10.947Z,100992.41
2023-05-20T02:46:38.978Z,100986.81
2023-05-20T02:49:06.596Z,100979.31
2023-05-20T02:51:34.181Z,100979.84
2023-05-20T02:54:02.284Z,100974.84
2023-05-20T02:56:30.138Z,100969.78
2023-05-20T02:58:57.700Z,100968.69
2023-05-20T03:01:25.804Z,100960.28
2023-05-20T03:03:53.911Z,100961.94
2023-05-20T03:06:21.561Z,100955.56
2023-05-20T03:08:51.404Z,100956.25
2023-05-20T03:11:19.407Z,100960.03
2023-05-20T03:13:47.536Z,100961.28
2023-05-20T03:16:18.583Z,100961.72
2023-05-20T03:18:46.588Z,100961.00
2023-05-20T03:21:14.969Z,100964.38
2023-05-20T03:23:42.967Z,100956.53
2023-05-20T03:26:10.520Z,100953.03
2023-05-20T03:28:38.118Z,100951.47
2023-05-20T03:31:06.631Z,100946.19
2023-05-20T03:33:36.072Z,100942.69
2023-05-20T03:36:05.093Z,100939.38
2023-05-20T03:38:33.272Z,100944.81
2023-05-20T03:41:01.466Z,100945.91
2023-05-20T03:43:29.027Z,100944.09
2023-05-20T03:45:57.162Z,100952.19
2023-05-20T03:48:24.878Z,100951.66
2023-05-20T03:50:53.351Z,100955.97
2023-05-20T03:53:21.232Z,100955.63
2023-05-20T03:55:48.885Z,100953.97
2023-05-20T03:58:16.774Z,100953.16
2023-05-20T04:00:44.759Z,100953.28
2023-05-20T04:03:13.000Z,100956.38
2023-05-20T04:05:40.642Z,100956.38
2023-05-20T04:08:16.150Z,100941.19
2023-05-20T04:10:44.586Z,100948.00
2023-05-20T04:13:13.567Z,100957.19
2023-05-20T04:15:42.441Z,100943.84
2023-05-20T04:18:13.268Z,100940.22
2023-05-20T04:20:41.706Z,100936.59
2023-05-20T04:23:10.831Z,100939.06
2023-05-20T04:25:39.330Z,100934.59
2023-05-20T04:28:10.813Z,100944.66
2023-05-20T04:30:38.841Z,100944.09
2023-05-20T04:33:06.915Z,100947.88
2023-05-20T04:35:37.647Z,100942.84
2023-05-20T04:38:07.673Z,100947.88
2023-05-20T04:40:35.632Z,100944.94
2023-05-20T04:43:04.087Z,100943.00
2023-05-20T04:45:34.240Z,100944.13
2023-05-20T04:48:02.197Z,100938.13
2023-05-20T04:50:29.798Z,100933.78
2023-05-20T04:52:57.758Z,100926.41
2023-05-20T04:55:26.010Z,100927.50
2023-05-20T04:57:54.241Z,100933.38
2023-05-20T05:00:21.811Z,100923.59
2023-05-20T05:02:49.927Z,100915.78
2023-05-20T05:05:17.964Z,100916.00
2023-05-20T05:07:45.922Z,100916.41
2023-05-20T05:10:14.020Z,100910.88
2023-05-20T05:12:42.063Z,100907.09
2023-05-20T05:15:11.087Z,100907.44
2023-05-20T05:17:38.876Z,100905.59
2023-05-20T05:20:08.918Z,100898.84
2023-05-20T05:22:37.190Z,100891.81
2023-05-20T05:25:05.358Z,100887.50
2023-05-20T05:27:33.032Z,100894.13
2023-05-20T05:30:03.067Z,100887.69
2023-05-20T05:32:32.199Z,100882.25
2023-05-20T05:35:00.153Z,100872.66
2023-05-20T05:37:29.639Z,100875.53
2023-05-20T05:39:57.284Z,100877.63
2023-05-20T05:42:25.487Z,100885.75
2023-05-20T05:44:53.572Z,100878.31
2023-05-20T05:47:21.805Z,100878.88
2023-05-20T05:49:49.633Z,100872.38
2023-05-20T05:52:17.186Z,100874.63
2023-05-20T05:54:44.754Z,100883.28
2023-05-20T05:57:13.181Z,100878.22
2023-05-20T05:59:41.563Z,100883.97
2023-05-20T06:02:10.925Z,100882.78
2023-05-20T06:04:39.021Z,100884.59
2023-05-20T06:07:07.157Z,100881.75
2023-05-20T06:09:35.302Z,100885.81
2023-05-20T06:12:03.746Z,100885.53
2023-05-20T06:14:32.626Z,100883.00
2023-05-20T06:17:01.128Z,100886.09
2023-05-20T06:19:29.620Z,100881.94
2023-05-20T06:21:58.789Z,100880.47
2023-05-20T06:24:26.853Z,100880.41
2023-05-20T06:26:55.156Z,100881.41
2023-05-20T06:29:23.771Z,100881.59
2023-05-20T06:31:51.783Z,100886.44
2023-05-20T06:34:19.416Z,100890.69
2023-05-20T06:36:47.110Z,100890.38
2023-05-20T06:39:16.368Z,100878.63
2023-05-20T06:41:45.942Z,100881.69
2023-05-20T06:44:20.418Z,100889.53
2023-05-20T06:47:18.429Z,100886.44
2023-05-20T06:49:48.596Z,100883.69
2023-05-20T06:52:17.620Z,100887.88
2023-05-20T06:54:46.168Z,100896.22
2023-05-20T06:57:15.167Z,100890.16
2023-05-20T06:59:42.729Z,100890.22
2023-05-20T07:02:11.713Z,100895.53
2023-05-20T07:04:39.366Z,100892.13
2023-05-20T07:07:06.982Z,100894.19
2023-05-20T07:09:34.626Z,100893.13
2023-05-20T07:12:02.360Z,100894.78
2023-05-20T07:14:30.832Z,100903.41
2023-05-20T07:16:58.392Z,100900.41
2023-05-20T07:19:26.068Z,100901.16
2023-05-20T07:21:54.388Z,100897.06
2023-05-20T07:24:40.853Z,100897.00
2023-05-20T07:27:09.537Z,100892.03
2023-05-20T07:29:37.533Z,100887.84
2023-05-20T07:32:06.064Z,100887.06
2023-05-20T07:34:35.607Z,100884.94
2023-05-20T07:37:04.270Z,100879.31
2023-05-20T07:39:32.791Z,100879.13
2023-05-20T07:42:00.397Z,100881.63
2023-05-20T07:44:28.059Z,100876.28
2023-05-20T07:46:56.729Z,100880.81
2023-05-20T07:49:24.775Z,100877.06
2023-05-20T07:51:52.550Z,100880.81
2023-05-20T07:54:20.783Z,100879.38
2023-05-20T07:56:51.586Z,100874.44
2023-05-20T07:59:19.907Z,100880.50
2023-05-20T08:01:49.579Z,100882.78
2023-05-20T08:04:19.941Z,100878.66
2023-05-20T08:06:47.548Z,100875.69
2023-05-20T08:09:22.614Z,100879.63
2023-05-20T08:11:54.219Z,100888.31
2023-05-20T08:14:21.855Z,100893.53
2023-05-20T08:16:55.012Z,100901.09
2023-05-20T08:19:23.269Z,100900.91
2023-05-20T08:21:51.063Z,100905.09
2023-05-20T08:24:19.078Z,100912.88
2023-05-20T08:26:47.120Z,100910.19
2023-05-20T08:29:16.495Z,100912.97
2023-05-20T08:31:44.959Z,100920.78
2023-05-20T08:34:13.790Z,100928.97
2023-05-20T08:36:42.432Z,100932.13
2023-05-20T08:39:10.782Z,100928.63
2023-05-20T08:41:39.817Z,100934.47
2023-05-20T08:44:11.616Z,100928.00
2023-05-20T08:46:41.481Z,100921.16
2023-05-20T08:49:09.655Z,100931.06
2023-05-20T08:51:38.843Z,100928.81
2023-05-20T08:54:08.963Z,100926.00
2023-05-20T08:56:37.008Z,100927.59
2023-05-20T08:59:05.540Z,100932.06
2023-05-20T09:01:37.096Z,100927.31
2023-05-20T09:04:05.230Z,100931.28
2023-05-20T09:06:46.109Z,100933.00
2023-05-20T09:09:14.761Z,100940.25
2023-05-20T09:11:43.270Z,100939.84
2023-05-20T09:14:10.930Z,100941.69
2023-05-20T09:16:41.530Z,100943.09
2023-05-20T09:19:11.122Z,100942.13
2023-05-20T09:21:41.499Z,100943.78
2023-05-20T09:24:09.647Z,100947.34
2023-05-20T09:26:37.765Z,100947.44
2023-05-20T09:29:05.492Z,100951.44
2023-05-20T09:31:34.104Z,100946.66
2023-05-20T09:34:02.890Z,100944.22
2023-05-20T09:36:35.227Z,100945.69
2023-05-20T09:39:05.545Z,100941.00
2023-05-20T09:41:45.162Z,100933.97
2023-05-20T09:44:14.141Z,100941.06
2023-05-20T09:46:44.166Z,100938.59
2023-05-20T09:49:13.268Z,100946.03
2023-05-20T09:51:42.113Z,100940.88
2023-05-20T09:54:12.911Z,100940.28
2023-05-20T09:56:42.262Z,100945.25
2023-05-20T09:59:11.655Z,100938.09
2023-05-20T10:01:39.300Z,100941.69
2023-05-20T10:04:09.597Z,100930.94
2023-05-20T10:06:43.472Z,100916.69
2023-05-20T10:09:30.405Z,100915.09
2023-05-20T10:12:29.856Z,100909.41
2023-05-20T10:15:10.601Z,100914.75
2023-05-20T10:18:07.330Z,100910.31
2023-05-20T10:20:46.321Z,100902.16
2023-05-20T10:23:24.123Z,100903.00
2023-05-20T10:25:53.667Z,100894.50
2023-05-20T10:28:33.071Z,100890.47
2023-05-20T10:31:00.924Z,100893.50
2023-05-20T10:33:29.663Z,100891.16
2023-05-20T10:36:01.270Z,100896.09
2023-05-20T10:38:29.138Z,100881.69
2023-05-20T10:41:09.160Z,100878.66
2023-05-20T10:43:37.527Z,100874.81
2023-05-20T10:46:07.549Z,100878.63
2023-05-20T10:48:43.186Z,100867.63
2023-05-20T10:51:15.120Z,100866.63
2023-05-20T10:53:46.953Z,100858.91
2023-05-20T10:56:25.594Z,100860.75
2023-05-20T10:58:54.997Z,100855.03
2023-05-20T11:01:27.246Z,100862.75
2023-05-20T11:03:57.464Z,100853.25
2023-05-20T11:06:29.127Z,100846.47
2023-05-20T11:09:07.333Z,100848.56
2023-05-20T11:11:35.405Z,100847.38
2023-05-20T11:14:03.195Z,100842.25
2023-05-20T11:16:31.622Z,100846.31
2023-05-20T11:18:59.483Z,100838.31
2023-05-20T11:21:28.554Z,100843.16
2023-05-20T11:23:56.184Z,100831.31
2023-05-20T11:26:25.148Z,100832.31
2023-05-20T11:28:53.330Z,100829.13
2023-05-20T11:31:21.786Z,100835.28
2023-05-20T11:33:50.917Z,100839.06
2023-05-20T11:36:27.482Z,100833.06
2023-05-20T11:38:58.285Z,100832.88
2023-05-20T11:41:29.422Z,100840.06
2023-05-20T11:44:01.311Z,100842.72
2023-05-20T11:46:29.127Z,100832.94
2023-05-20T11:48:58.018Z,100828.72
2023-05-20T11:51:30.139Z,100839.63
2023-05-20T11:54:02.876Z,100845.25
2023-05-20T11:56:32.077Z,100858.47
2023-05-20T11:59:01.180Z,100874.66
2023-05-20T12:01:42.967Z,100887.31
2023-05-20T12:04:12.044Z,100893.91
2023-05-20T12:06:40.166Z,100882.31
2023-05-20T12:09:08.744Z,100870.19
2023-05-20T12:11:39.818Z,100856.59
2023-05-20T12:14:08.248Z,100853.59
2023-05-20T12:16:37.006Z,100847.09
2023-05-20T12:19:04.971Z,100856.47
2023-05-20T12:21:33.112Z,100860.78
2023-05-20T12:24:01.164Z,100873.22
2023-05-20T12:26:30.175Z,100869.38
2023-05-20T12:28:58.138Z,100874.84
2023-05-20T12:31:26.572Z,100875.56
2023-05-20T12:33:54.158Z,100873.75
2023-05-20T12:36:22.003Z,100870.38
2023-05-20T12:38:49.515Z,100878.91
2023-05-20T12:41:17.233Z,100870.09
2023-05-20T12:43:44.793Z,100874.44
2023-05-20T12:46:12.851Z,100866.28
2023-05-20T12:48:42.711Z,100875.50
2023-05-20T12:51:10.548Z,100861.00
2023-05-20T12:53:38.439Z,100872.16
2023-05-20T12:56:07.891Z,100871.66
2023-05-20T12:58:36.071Z,100856.66
2023-05-20T13:01:04.335Z,100853.34
2023-05-20T13:03:32.303Z,100860.81
2023-05-20T13:06:00.638Z,100859.16
2023-05-20T13:08:28.790Z,100856.16
2023-05-20T13:10:57.195Z,100861.34
2023-05-20T13:13:24.782Z,100857.50
2023-05-20T13:15:53.255Z,100862.66
2023-05-20T13:18:21.510Z,100854.94
2023-05-20T13:20:49.144Z,100852.81
2023-05-20T13:23:16.732Z,100862.44
2023-05-20T13:25:45.202Z,100852.16
2023-05-20T13:28:16.646Z,100864.47
2023-05-20T13:30:44.853Z,100847.75
2023-05-20T13:33:12.945Z,100855.75
2023-05-20T13:35:41.095Z,100851.81
2023-05-20T13:38:10.460Z,100853.13
2023-05-20T13:40:37.962Z,100846.81
2023-05-20T13:43:05.580Z,100856.97
2023-05-20T13:45:33.597Z,100855.13
2023-05-20T13:48:01.761Z,100860.16
2023-05-20T13:50:29.472Z,100851.81
2023-05-20T13:52:57.532Z,100847.47
2023-05-20T13:55:26.051Z,100843.16
2023-05-20T13:57:54.402Z,100840.13
2023-05-20T14:00:22.505Z,100846.81
2023-05-20T14:02:50.555Z,100846.78
2023-05-20T14:05:18.994Z,100851.59
2023-05-20T14:07:46.603Z,100851.75
2023-05-20T14:10:14.526Z,100856.09
2023-05-20T14:12:48.049Z,100859.00
2023-05-20T14:15:16.349Z,100864.16
2023-05-20T14:17:44.253Z,100861.06
2023-05-20T14:20:12.223Z,100865.44
2023-05-20T14:22:40.229Z,100858.69
2023-05-20T14:25:09.182Z,100863.69
2023-05-20T14:27:36.735Z,100855.38
2023-05-20T14:30:04.886Z,100860.19
2023-05-20T14:32:32.698Z,100853.09
2023-05-20T14:35:00.572Z,100853.31
2023-05-20T14:37:28.279Z,100861.69
2023-05-20T14:39:56.240Z,100843.97
2023-05-20T14:42:24.206Z,100847.47
2023-05-20T14:44:51.763Z,100847.94
2023-05-20T14:47:22.275Z,100848.56
2023-05-20T14:49:50.283Z,100844.75
2023-05-20T14:52:19.259Z,100851.13
2023-05-20T14:54:46.901Z,100855.00
2023-05-20T14:57:16.097Z,100852.66
2023-05-20T14:59:44.378Z,100842.44
2023-05-20T15:02:15.587Z,100851.28
2023-05-20T15:04:46.427Z,100853.97
2023-05-20T15:07:15.234Z,100851.28
2023-05-20T15:09:43.970Z,100851.84
2023-05-20T15:12:12.092Z,100861.50
2023-05-20T15:14:40.187Z,100860.81
2023-05-20T15:17:08.580Z,100862.50
2023-05-20T15:19:39.639Z,100866.69
2023-05-20T15:22:08.586Z,100867.72
2023-05-20T15:24:36.206Z,100871.91
2023-05-20T15:27:04.334Z,100864.72
2023-05-20T15:29:31.942Z,100860.88
2023-05-20T15:31:59.571Z,100861.91
2023-05-20T15:34:28.116Z,100850.75
2023-05-20T15:36:56.108Z,100845.94
2023-05-20T15:39:23.680Z,100853.09
2023-05-20T15:41:52.378Z,100853.22
2023-05-20T15:44:20.960Z,100850.41
2023-05-20T15:46:49.339Z,100836.44
2023-05-20T15:49:17.479Z,100840.63
2023-05-20T15:51:52.163Z,100835.22
2023-05-20T15:54:30.107Z,100837.78
2023-05-20T15:56:58.137Z,100833.25
2023-05-20T15:59:26.685Z,100827.44
2023-05-20T16:01:54.255Z,100828.72
2023-05-20T16:04:22.370Z,100828.22
2023-05-20T16:06:50.083Z,100824.41
2023-05-20T16:09:17.671Z,100824.09
2023-05-20T16:11:45.913Z,100819.59
2023-05-20T16:14:13.846Z,100833.41
2023-05-20T16:16:42.003Z,100829.28
2023-05-20T16:19:10.317Z,100830.59
2023-05-20T16:21:38.195Z,100827.06
2023-05-20T16:24:06.008Z,100826.94
2023-05-20T16:26:34.190Z,100825.91
2023-05-20T16:29:01.760Z,100827.91
2023-05-20T16:31:29.968Z,100829.41
2023-05-20T16:33:58.250Z,100840.41
2023-05-20T16:36:25.952Z,100838.91
2023-05-20T16:38:53.590Z,100841.66
2023-05-20T16:41:22.919Z,100837.56
2023-05-20T16:43:50.551Z,100840.59
2023-05-20T16:46:18.302Z,100843.19
2023-05-20T16:48:46.375Z,100845.34
2023-05-20T16:51:14.254Z,100847.25
2023-05-20T16:53:41.775Z,100842.97
2023-05-20T16:56:09.445Z,100850.03
2023-05-20T16:58:37.508Z,100850.16
2023-05-20T17:01:05.241Z,100847.75
2023-05-20T17:03:33.439Z,100850.31
2023-05-20T17:06:01.854Z,100848.19
2023-05-20T17:08:29.907Z,100855.81
2023-05-20T17:10:59.755Z,100852.00
2023-05-20T17:13:27.331Z,100846.13
2023-05-20T17:15:55.501Z,100851.91
2023-05-20T17:18:23.514Z,100844.91
2023-05-20T17:20:51.748Z,100851.03
2023-05-20T17:23:19.330Z,100857.50
2023-05-20T17:25:47.334Z,100847.84
2023-05-20T17:28:14.907Z,100845.22
2023-05-20T17:30:42.891Z,100848.16
2023-05-20T17:33:11.318Z,100861.16
2023-05-20T17:35:39.077Z,100859.38
2023-05-20T17:38:07.243Z,100861.91
2023-05-20T17:40:36.061Z,100863.28
2023-05-20T17:43:04.031Z,100869.84
2023-05-20T17:45:31.726Z,100864.94
2023-05-20T17:47:59.722Z,100880.47
2023-05-20T17:50:27.472Z,100882.03
2023-05-20T17:52:55.249Z,100889.75
2023-05-20T17:55:23.431Z,100887.41
2023-05-20T17:57:51.394Z,100899.41
2023-05-20T18:00:21.512Z,100895.72
2023-05-20T18:02:49.965Z,100904.13
2023-05-20T18:05:18.206Z,100908.53
2023-05-20T18:07:46.052Z,100909.81
2023-05-20T18:10:14.455Z,100906.31
2023-05-20T18:12:42.928Z,100913.72
2023-05-20T18:15:10.706Z,100914.34
2023-05-20T18:17:40.171Z,100904.97
2023-05-20T18:20:09.781Z,100912.47
2023-05-20T18:22:40.304Z,100910.75
2023-05-20T18:25:09.120Z,100908.06
2023-05-20T18:27:37.140Z,100907.34
2023-05-20T18:30:05.498Z,100902.47
2023-05-20T18:32:33.416Z,100905.66
2023-05-20T18:35:01.586Z,100910.44
2023-05-20T18:37:30.086Z,100913.09
2023-05-20T18:39:58.875Z,100904.19
2023-05-20T18:42:26.573Z,100909.75
2023-05-20T18:44:54.354Z,100901.31
2023-05-20T18:47:22.005Z,100886.97
2023-05-20T18:49:50.047Z,100905.56
2023-05-20T18:52:18.197Z,100896.31
2023-05-20T18:54:46.411Z,100897.50
2023-05-20T18:57:14.085Z,100898.25
2023-05-20T18:59:42.066Z,100896.50
2023-05-20T19:02:10.181Z,100889.44
2023-05-20T19:04:38.213Z,100890.97
2023-05-20T19:07:07.013Z,100897.28
2023-05-20T19:09:35.118Z,100895.16
2023-05-20T19:12:04.924Z,100898.13
2023-05-20T19:14:32.992Z,100899.72
2023-05-20T19:17:01.330Z,100892.94
2023-05-20T19:19:29.589Z,100892.19
2023-05-20T19:21:57.374Z,100894.63
2023-05-20T19:24:25.358Z,100900.69
2023-05-20T19:26:52.879Z,100902.91
2023-05-20T19:29:20.577Z,100902.16
2023-05-20T19:31:48.220Z,100899.88
2023-05-20T19:34:15.931Z,100897.59
2023-05-20T19:36:44.518Z,100900.00
2023-05-20T19:39:12.149Z,100898.75
2023-05-20T19:41:40.237Z,100896.38
2023-05-20T19:44:08.836Z,100904.34
2023-05-20T19:46:36.892Z,100901.53
2023-05-20T19:49:04.705Z,100900.47
2023-05-20T19:51:32.449Z,100905.72
2023-05-20T19:54:00.721Z,100900.69
2023-05-20T19:56:28.338Z,100903.22
2023-05-20T19:58:57.627Z,100903.91
2023-05-20T20:01:25.583Z,100911.56
2023-05-20T20:03:53.980Z,100910.03
2023-05-20T20:06:21.776Z,100912.09
2023-05-20T20:08:49.786Z,100913.91
2023-05-20T20:11:17.736Z,100913.44
2023-05-20T20:13:46.476Z,100917.09
2023-05-20T20:16:15.593Z,100911.53
2023-05-20T20:18:43.379Z,100911.47
2023-05-20T20:21:11.480Z,100916.81
2023-05-20T20:23:39.098Z,100912.31
2023-05-20T20:26:07.849Z,100910.50
2023-05-20T20:28:35.519Z,100913.44
2023-05-20T20:31:03.548Z,100910.41
2023-05-20T20:33:31.958Z,100918.16
2023-05-20T20:35:59.546Z,100913.69
2023-05-20T20:38:27.087Z,100915.59
2023-05-20T20:40:55.126Z,100912.59
2023-05-20T20:43:22.965Z,100915.59
2023-05-20T20:45:53.176Z,100912.69
2023-05-20T20:48:26.598Z,100917.41
2023-05-20T20:50:54.502Z,100919.94
2023-05-20T20:53:22.585Z,100914.53
2023-05-20T20:55:51.580Z,100916.59
2023-05-20T20:58:20.132Z,100911.97
2023-05-20T21:00:48.853Z,100911.34
2023-05-20T21:03:18.511Z,100912.53
2023-05-20T21:05:48.594Z,100902.81
2023-05-20T21:08:16.645Z,100902.25
2023-05-20T21:10:44.761Z,100897.59
2023-05-20T21:13:12.368Z,100885.97
2023-05-20T21:15:41.806Z,100887.34
2023-05-20T21:18:09.972Z,100885.38
2023-05-20T21:20:37.550Z,100885.66
2023-05-20T21:23:05.298Z,100878.97
2023-05-20T21:25:32.864Z,100880.78
2023-05-20T21:28:00.565Z,100879.59
2023-05-20T21:30:28.518Z,100876.88
2023-05-20T21:32:56.145Z,100875.13
2023-05-20T21:35:24.184Z,100882.59
2023-05-20T21:37:52.244Z,100880.53
2023-05-20T21:40:20.450Z,100877.34
2023-05-20T21:42:50.701Z,100882.50
2023-05-20T21:45:18.541Z,100870.22
2023-05-20T21:47:47.117Z,100867.56
2023-05-20T21:50:15.392Z,100863.22
2023-05-20T21:52:43.283Z,100862.78
2023-05-20T21:55:11.902Z,100862.97
2023-05-20T21:57:39.582Z,100858.63
2023-05-20T22:00:10.559Z,100859.47
2023-05-20T22:02:38.422Z,100856.63
2023-05-20T22:05:06.620Z,100853.63
2023-05-20T22:07:34.595Z,100849.69
2023-05-20T22:10:02.394Z,100846.91
2023-05-20T22:12:29.990Z,100846.31
2023-05-20T22:14:58.180Z,100840.00
2023-05-20T22:17:26.320Z,100837.00
2023-05-20T22:19:54.362Z,100839.63
2023-05-20T22:22:22.543Z,100830.97
2023-05-20T22:24:50.118Z,100843.44
2023-05-20T22:27:18.125Z,100838.75
2023-05-20T22:29:46.250Z,100836.41
2023-05-20T22:32:14.203Z,100832.00
2023-05-20T22:34:42.780Z,100837.44
2023-05-20T22:37:11.780Z,100826.91
2023-05-20T22:39:39.954Z,100832.91
2023-05-20T22:42:07.547Z,100829.78
2023-05-20T22:44:35.116Z,100821.22
2023-05-20T22:47:03.150Z,100828.13
2023-05-20T22:49:30.798Z,100819.09
2023-05-20T22:51:59.347Z,100820.16
2023-05-20T22:54:27.362Z,100813.78
2023-05-20T22:56:59.139Z,100810.81
2023-05-20T22:59:26.973Z,100813.47
2023-05-20T23:01:55.118Z,100807.56
2023-05-20T23:04:23.783Z,100794.84
2023-05-20T23:06:53.807Z,100790.56
2023-05-20T23:09:21.515Z,100794.88
2023-05-20T23:11:49.057Z,100794.88
2023-05-20T23:14:17.115Z,100792.09
2023-05-20T23:16:44.769Z,100785.06
2023-05-20T23:19:12.468Z,100780.25
2023-05-20T23:21:40.716Z,100777.88
2023-05-20T23:24:08.586Z,100776.28
2023-05-20T23:26:37.825Z,100781.38
2023-05-20T23:29:05.516Z,100776.63
2023-05-20T23:31:33.953Z,100773.13
2023-05-20T23:34:03.745Z,100771.00
2023-05-20T23:36:34.582Z,100765.31
2023-05-20T23:39:02.885Z,100764.84
2023-05-20T23:41:30.728Z,100765.31
2023-05-20T23:43:58.415Z,100758.56
2023-05-20T23:46:26.475Z,100757.94
2023-05-20T23:48:54.925Z,100760.78
2023-05-20T23:51:22.956Z,100757.44
2023-05-20T23:53:50.545Z,100755.69
2023-05-20T23:56:18.262Z,100750.22
2023-05-20T23:58:47.330Z,100754.91
